<< Go Back

Portofino Run for Art 5k Run/Walk
Date: Jul. 14, 2012
Results by Everal Race Management
Contact for Race Timing

Portofino Run for Art 5k Run/Walk
Age Group Results
July 14, 2012

--------------------------------------------------------------------------------
Results By Everal Race Management
--------------------------------------------------------------------------------

Female Overall Winners
Total
Place Name City Bib No Age Overall Time Pace
1 Ann-Germaine Danz Wyandotte MI 23 26 21 20:15.3 6:32/M

Male Overall Winners
Total
Place Name City Bib No Age Overall Time Pace
1 Matt Robin Rockwood MI 284 29 1 16:59.5 5:29/M

Female Masters Winners
Total
Place Name City Bib No Age Overall Time Pace
1 Denise Kopp Grosse Ile MI 301 44 30 21:14.2 6:51/M

Male Masters Winners
Total
Place Name City Bib No Age Overall Time Pace
1 Paul Aufdemberge Redford MI 1 47 2 17:38.3 5:41/M

No age provided
Total
Place Name City Bib No Age Overall Time Pace
1 Nicole Perry Newport MI 33 0 281 45:32.5 14:41/M

Female 13 & under
Total
Place Name City Bib No Age Overall Time Pace
1 Michelina Partipilo Trenton MI 234 13 64 24:08.1 7:47/M
2 Mallory Emeigh Taylor MI 192 9 97 25:56.1 8:22/M
3 Jenna Locricchio Northville MI 308 10 110 26:31.3 8:33/M
4 Dani Cruciani Grosse Ile MI 222 11 177 31:33.5 10:11/M
5 Mckenna Stone Newport MI 77 12 207 33:19.4 10:45/M
6 Suzanne Irani Dearborn Height MI 270 12 210 33:44.5 10:53/M
7 Kailey Hamilton Newport MI 35 12 295 52:06.5 16:48/M

Male 13 & under
Total
Place Name City Bib No Age Overall Time Pace
1 Terry Emeigh III Taylor MI 123 10 53 23:19.9 7:31/M
2 Clark Sheldon Wyandotte MI 194 13 54 23:21.2 7:32/M
3 Tanner Wallace Riverview MI 242 13 219 34:37.4 11:10/M
4 Hunter Krukowski Lincoln Park MI 248 8 266 42:46.5 13:48/M

Female 14 to 15
Total
Place Name City Bib No Age Overall Time Pace
1 Alison Morren Canton MI 276 14 92 25:38.8 8:16/M
2 Hayley Stone Newport MI 75 14 93 25:39.1 8:16/M
3 Emma Swales Canton MI 183 15 122 27:19.1 8:49/M
4 Anna Ringuette West Bloomfield MI 283 15 164 30:09.7 9:44/M
5 Shannon Kowalewski Wyandotte MI 61 14 175 31:27.7 10:09/M
6 Madison Stone Newport MI 76 14 178 31:33.9 10:11/M
7 Gabriella Cruciani Grosse Ile MI 224 14 250 38:56.1 12:34/M
8 Marisa Hamilton Newport MI 36 15 296 52:07.2 16:49/M

Male 14 to 15
Total
Place Name City Bib No Age Overall Time Pace
1 Dominic Davis Wyandotte MI 91 15 4 18:16.0 5:54/M
2 Patrick Ryan Flat Rock MI 203 15 6 18:36.5 6:00/M
3 Jake Coulter Wyandotte MI 214 15 7 18:50.4 6:05/M
4 Dylan Gracia New Boston MI 265 15 9 19:08.2 6:10/M
5 Jack Randles Trenton MI 55 14 12 19:38.2 6:20/M
6 Adam Kopp Grosse Ile MI 300 14 20 20:10.1 6:30/M
7 Zachary Stempien Wyandotte MI 71 15 27 21:00.9 6:46/M
8 Joe Gajda Grosse Ile MI 225 15 28 21:03.9 6:47/M
9 Austin Guyer Southgate MI 267 15 118 27:02.2 8:43/M
10 Carlos Salcido Jr. Lincoln Park MI 42 14 141 28:35.3 9:13/M
11 Devin Simmons Wyandotte MI 12 14 259 39:49.8 12:51/M

Female 16 to 17
Total
Place Name City Bib No Age Overall Time Pace
1 Adriane Miller Newport MI 275 17 51 23:01.9 7:25/M
2 Nicole Marek Grosse Ile MI 304 16 70 24:15.2 7:49/M
3 Brittney Marek Grosse Ile MI 305 17 120 27:05.2 8:44/M
4 Nicole Pettit Garden City MI 193 16 181 31:39.5 10:13/M
5 Mackenzie Hoffman Taylor MI 164 16 224 35:03.6 11:18/M

Male 16 to 17
Total
Place Name City Bib No Age Overall Time Pace
1 Sean Nowak Trenton MI 311 17 5 18:20.0 5:55/M
2 Fernando Marquez Wyandotte MI 45 16 8 18:57.4 6:07/M
3 Tyler Long Wyandotte MI 213 16 41 22:24.0 7:14/M
4 Giuseppe Partipilo Trenton MI 235 16 68 24:13.4 7:49/M
5 Andy June Wyandotte MI 106 17 166 30:34.3 9:52/M

Female 18 to 19
Total
Place Name City Bib No Age Overall Time Pace
1 Sadie Dunlan South Rockwood MI 53 19 63 24:06.4 7:46/M
2 Hailey Charles Riverview MI 99 19 168 30:46.6 9:55/M
3 Deana Baydoun Dearborn Height MI 253 19 196 32:28.6 10:28/M
4 Claire Sinai Huntington Wood MI 173 19 279 45:28.5 14:40/M

Male 18 to 19
Total
Place Name City Bib No Age Overall Time Pace
1 Josh Simmons Wyandotte MI 13 18 13 19:38.8 6:20/M
2 Kort Stamper Southgate MI 289 19 124 27:28.4 8:52/M

Female 20 to 24
Total
Place Name City Bib No Age Overall Time Pace
1 Julia Kerekes Lincoln Park MI 2 22 46 22:44.7 7:20/M
2 Candice Bresnahan Woodhaven MI 24 20 116 26:56.6 8:41/M
3 Tiffany Baker Wyandotte MI 317 22 117 26:56.6 8:41/M
4 Stephanie Bork Ann Arbor, MI 180 23 135 28:02.4 9:03/M
5 Jennifer Pruner Melvindale MI 93 23 174 31:27.1 10:09/M
6 Sara Stein Trenton MI 171 21 203 32:57.0 10:38/M
7 Fatrna Nizam Dearborn MI 322 23 204 32:58.9 10:38/M
8 Caitlin Siegel Riverview MI 232 23 256 39:27.2 12:44/M
9 Samantha Sinai Huntington Wood MI 151 22 278 45:27.6 14:40/M
10 Ronit Weinmann Huntington Wood MI 150 21 280 45:28.6 14:40/M
11 Kathryn Franchini Albuquerque NM 177 24 288 48:26.9 15:37/M

Male 20 to 24
Total
Place Name City Bib No Age Overall Time Pace
1 Alex Salinas Dearborn MI 286 23 3 18:08.5 5:51/M
2 Merwan Faraj Dearborn Height MI 117 24 18 19:58.7 6:26/M
3 Stephen Mozug Livonia MI 88 24 35 22:02.3 7:06/M
4 Eric Turinsky Southgate MI 290 23 65 24:11.8 7:48/M
5 Colin Paulbeck Trenton MI 279 21 69 24:14.1 7:49/M
6 Chadd Callahan Riverview MI 122 22 114 26:52.8 8:40/M
7 Simon Dishow Sterling Height MI 102 24 193 32:17.1 10:25/M

Female 25 to 29
Total
Place Name City Bib No Age Overall Time Pace
1 Jennifer Allen Walled Lake MI 324 27 90 25:29.8 8:13/M
2 Tiffany Keith Allen Park MI 282 29 101 26:02.3 8:24/M
3 Heather Tessier Riverview MI 250 29 102 26:04.5 8:25/M
4 Anne Kremer Newport MI 178 26 119 27:03.6 8:44/M
5 Elizabeth Dorris Allen Park MI 221 27 123 27:27.8 8:51/M
6 Emily Morris Carleton MI 30 28 140 28:34.4 9:13/M
7 Courtney Eaton Brownstown MI 205 29 205 33:06.5 10:41/M
8 Rachel Mataitis Allen Park MI 161 27 222 34:47.9 11:13/M
9 Tammy Konarska Brownstown MI 17 26 244 37:38.9 12:08/M
10 Denise Schuck Wyandotte MI 125 25 249 38:25.3 12:24/M
11 Lisa Stein Big Rapids MI 168 25 253 39:16.1 12:40/M
12 Ashley Cowgar Southgate MI 210 25 268 43:10.4 13:55/M
13 Kristina Calvird Trenton MI 201 25 269 43:11.0 13:56/M
14 Ashley Demyanovich Riverview MI 63 26 271 43:41.0 14:05/M
15 Carla Roush Brownstown MI 186 27 299 58:48.7 18:58/M
16 Karen Skelton Trenton MI 135 28 301 1:02:56.3 20:18/M
17 Jamie Stein Trenton MI 188 28 302 1:02:58.3 20:19/M

Male 25 to 29
Total
Place Name City Bib No Age Overall Time Pace
1 John Kremer Newport MI 107 26 15 19:47.8 6:23/M
2 William Staab Grosse Ile MI 233 29 19 20:03.6 6:28/M
3 Steven Anteau Flat Rock MI 303 28 38 22:14.5 7:10/M
4 Chris Lucier Wyandotte MI 50 28 57 23:34.3 7:36/M
5 Christopher Gawel Woodhaven MI 316 29 60 23:48.7 7:41/M
6 Shawn Zalewski Taylor MI 226 27 71 24:20.6 7:51/M
7 Frank Rydquist Taylor MI 113 25 80 25:01.9 8:04/M
8 David Green Lincoln Park MI 266 28 126 27:35.9 8:54/M
9 Lance Belcher Taylor MI 255 29 129 27:44.3 8:57/M
10 Aaron Anderson Livonia MI 39 29 161 30:00.5 9:41/M
11 Alex Stein Trenton MI 132 27 180 31:39.4 10:13/M
12 Nathan Wellman Flat Rock MI 126 28 185 31:53.9 10:17/M

Female 30 to 34
Total
Place Name City Bib No Age Overall Time Pace
1 Bang-On Doyle Lake Panasoffkee F 26 31 88 25:27.2 8:13/M
2 Monica Capilla Canton MI 191 32 113 26:49.8 8:39/M
3 Meaghan Hackney Trenton MI 218 33 131 27:46.5 8:57/M
4 Shabnam Saghir Farmington MI 285 32 142 28:40.5 9:15/M
5 Katie Rybicki Allen Park MI 321 33 150 29:04.2 9:23/M
6 Mary Helen Dropff Romulus MI 209 34 155 29:22.1 9:28/M
7 Suzy Olsen Riverview MI 244 32 159 29:38.7 9:34/M
8 Lisa Guitar Taylor MI 81 33 163 30:05.8 9:42/M
9 Shannon Inman Westland MI 268 33 171 31:03.3 10:01/M
10 Lisa Short Beverly Hills MI 288 32 172 31:14.5 10:05/M
11 Sarah Deangelo Flat Rock MI 124 31 184 31:53.2 10:17/M
12 Marianna Janatova Brownstown MI 66 34 186 31:58.3 10:19/M
13 Heather Cosme Dearborn MI 259 33 187 32:07.7 10:22/M
14 Kelly Hickey Wyandotte MI 195 32 197 32:31.4 10:29/M
15 Sara Reiman Woodhaven MI 32 32 216 34:22.0 11:05/M
16 Stephanie Renaud Southgate MI 95 32 246 37:55.3 12:14/M
17 Mumtaz Dawoodi Farmington MI 263 34 262 40:35.5 13:05/M
18 Rose Paterson Oak Park MI 158 33 267 43:08.8 13:55/M
19 Kristal Nadolski Southgate MI 6 33 273 43:56.5 14:10/M
20 Wendy Locicero Wyandotte MI 136 34 290 48:46.7 15:44/M
21 Cynthia Koroly Lincoln Park MI 272 33 292 49:27.9 15:57/M

Male 30 to 34
Total
Place Name City Bib No Age Overall Time Pace
1 Dennis Hickey Wyandotte MI 196 32 23 20:35.0 6:38/M
2 Jeff Tessier Riverview MI 249 31 32 21:43.3 7:00/M
3 Gregory Pagano Riverview MI 199 32 50 23:00.3 7:25/M
4 Joseph Evans Chicago IL 293 30 62 24:03.3 7:45/M
5 Scott Strong Flat Rock MI 320 31 81 25:07.0 8:06/M
6 Thomas Samataro Macomb MI 58 33 94 25:44.6 8:18/M
7 Joseph Anteau Jackson MI 22 31 109 26:21.5 8:30/M
8 Kevin Zuk Southgate MI 100 31 112 26:47.6 8:38/M
9 Ken Eaton Dearborn MI 204 32 152 29:06.6 9:23/M
10 Sean Fineran Westland MI 115 34 211 33:49.2 10:55/M
11 Steven Matthews Canton MI 130 34 217 34:25.2 11:06/M
12 Eric Sielaff New Boston MI 319 34 233 36:12.6 11:41/M
13 Caleb Ashley Southgate MI 94 33 251 39:05.0 12:36/M

Female 35 to 39
Total
Place Name City Bib No Age Overall Time Pace
1 Melissa Armatis Wyandotte MI 160 39 31 21:26.7 6:55/M
2 Juliette McNiven-Perry Berkley MI 165 39 33 21:52.3 7:03/M
3 Amber McNew Taylor MI 80 36 89 25:27.5 8:13/M
4 Melanie Rice Brownstown MI 147 36 105 26:07.9 8:25/M
5 Tracey Broglin Garden City MI 228 38 106 26:11.3 8:27/M
6 Beth Reese Wyandotte MI 21 35 125 27:35.4 8:54/M
7 Nicole Johnson Troy MI 167 35 130 27:45.7 8:57/M
8 Rebecca Kerr Southgate MI 220 36 157 29:35.8 9:33/M
9 Michelle Emeigh Taylor MI 172 39 158 29:37.4 9:33/M
10 Toddra Labadie Wyandotte MI 16 36 182 31:39.7 10:13/M
11 Shannon Peek Southgate MI 323 38 189 32:09.6 10:22/M
12 Jaime Craig Allen Park MI 261 35 191 32:12.9 10:23/M
13 Amy Colligan Redford MI 257 39 200 32:43.6 10:33/M
14 Melony Cicotte New Boston MI 51 37 201 32:46.5 10:34/M
15 Maria Martin Plymouth MI 190 38 208 33:20.0 10:45/M
16 Deanna Ballheim Dearborn MI 252 39 209 33:20.1 10:45/M
17 Andrea Gibbs Wyandotte MI 70 38 229 35:32.6 11:28/M
18 Brandy Shiveley Allen Park MI 238 39 242 37:32.3 12:06/M
19 Stacy Sheedy Lincoln Park MI 31 37 254 39:16.4 12:40/M
20 Katie Colligan Lincoln Park MI 258 39 260 39:55.5 12:53/M
21 Jamie Fineran Westland MI 145 35 264 42:02.7 13:34/M
22 Laura Fleszar New Boston MI 216 39 275 44:22.3 14:19/M
23 Mishelle Lamarand Taylor MI 273 39 276 44:38.9 14:24/M
24 Deanna Hamilton Newport MI 34 38 293 49:47.5 16:04/M
25 Angela Vassallo Dearborn Height MI 187 36 294 49:55.7 16:06/M

Male 35 to 39
Total
Place Name City Bib No Age Overall Time Pace
1 Jason Davis Wyandotte MI 90 36 24 20:44.6 6:41/M
2 John Garrett Monroe MI 29 39 29 21:12.9 6:50/M
3 Matthew Randles Trenton MI 56 39 37 22:11.7 7:09/M
4 Randy Hackney Trenton MI 217 35 39 22:22.1 7:13/M
5 Matthew Boedeker Grosse Pte Woods M 313 35 66 24:12.9 7:48/M
6 John Rogers South Rockwood MI 310 35 67 24:13.1 7:49/M
7 Scott Czopek Grosse Ile MI 127 39 72 24:20.7 7:51/M
8 Terry Emeigh Jr Taylor MI 131 39 77 24:52.7 8:01/M
9 Jason McMahon Wyandotte MI 27 36 83 25:10.3 8:07/M
10 Brandon Barber Wyandotte MI 111 36 84 25:15.9 8:09/M
11 Jeff Benedict Southgate MI 243 35 104 26:05.1 8:25/M
12 Peter Murasky Jr W MI 104 39 143 28:40.7 9:15/M
13 Matthew Engler Allen Park MI 264 35 153 29:19.3 9:27/M
14 Gregory Lotoczky Allen Park MI 302 37 218 34:35.1 11:09/M

Female 40 to 44
Total
Place Name City Bib No Age Overall Time Pace
1 Jenny Ballard Wyandotte MI 312 40 48 22:53.2 7:23/M
2 Kathie Fedoronko Wyandotte MI 143 44 96 25:46.6 8:19/M
3 Rosemary Nuttall Riverview MI 278 41 107 26:12.0 8:27/M
4 Tammy Beaudoin Taylor MI 86 44 134 27:57.4 9:01/M
5 Tanya MacKrain-Skwirsk Canton MI 175 43 139 28:12.5 9:06/M
6 Mary Cruz Brownstown MI 181 44 148 29:02.3 9:22/M
7 Sheri Charles Wyandotte MI 98 40 151 29:06.4 9:23/M
8 Michele Jackson Riverview MI 7 41 165 30:24.0 9:48/M
9 Sue Somerset Wyandotte MI 318 42 167 30:37.9 9:53/M
10 Carolyn Ferreri Westland MI 184 41 225 35:05.4 11:19/M
11 Lia Cruciani Grosse Ile MI 247 41 227 35:19.8 11:24/M
12 Tracy Vagner Livonia MI 170 41 236 36:38.4 11:49/M
13 Jackie Ray Grass Lake MI 83 43 243 37:37.2 12:08/M
14 Marsha Salcido Lincoln Park MI 43 43 258 39:42.7 12:48/M
15 Dawn Youkna Southgate MI 295 43 263 41:28.5 13:23/M
16 Mary Riding Odessa FL 19 43 272 43:55.3 14:10/M

Male 40 to 44
Total
Place Name City Bib No Age Overall Time Pace
1 Wayne Dutton Trenton MI 314 41 14 19:43.0 6:22/M
2 Tom Stacho Riverview MI 294 42 40 22:23.0 7:13/M
3 Chris Rice Brownstown MI 120 40 42 22:25.8 7:14/M
4 Dave Kadzitz Wyandotte MI 229 42 44 22:33.5 7:16/M
5 Jeff Kopp Grosse Ile MI 299 43 55 23:22.5 7:32/M
6 Steven Novicki New Boston MI 277 40 73 24:20.9 7:51/M
7 Thomas Zacharski Southgate MI 307 44 74 24:28.5 7:54/M
8 Tim McGovern Riverview MI 227 43 91 25:32.2 8:14/M
9 Mike Roy Allen Park MI 114 44 100 26:01.1 8:24/M
10 Ed Sliwka Wyandotte MI 159 40 111 26:41.0 8:36/M
11 Joseph Cruciani Grosse Ile MI 223 42 138 28:12.1 9:06/M
12 Kevin Czopek Woodhaven MI 68 41 221 34:43.3 11:12/M
13 James Jackson Brownstown MI 92 44 237 36:44.2 11:51/M
14 Jerry Stackpole Trenton MI 112 42 239 37:15.1 12:01/M
15 David Ballheim Dearborn MI 251 42 291 49:19.8 15:55/M

Female 45 to 49
Total
Place Name City Bib No Age Overall Time Pace
1 Pina Finazzo Wyandotte MI 174 46 47 22:52.1 7:23/M
2 Nancy Damm Ann Arbor MI 262 45 49 22:58.4 7:25/M
3 Elaine Lotoczky Allen Park MI 274 46 86 25:25.1 8:12/M
4 Marie Conflitti Trenton MI 152 47 103 26:05.0 8:25/M
5 Carol Taylor Westland MI 163 49 115 26:56.0 8:41/M
6 Melinda Beaker Trenton MI 154 49 169 30:53.8 9:58/M
7 Annette David Trenton MI 149 45 176 31:31.1 10:10/M
8 Mary Thompson Wyandotte MI 65 47 183 31:40.2 10:13/M
9 Julie Brant New Boston MI 18 45 198 32:33.2 10:30/M
10 Gladys Dabaja Dearborn MI 162 46 202 32:50.8 10:35/M
11 Jane Wallace Riverview MI 241 45 230 35:32.8 11:28/M
12 Geraldine Broge Huntington Beac CA 256 48 232 36:00.4 11:37/M
13 Sandra Johnson St. Clair Shore MI 153 48 234 36:27.1 11:45/M
14 Paula Breault Southgate MI 37 48 245 37:40.5 12:09/M
15 Joan Weisberg Milford MI 14 45 247 37:57.7 12:15/M
16 Kelly Lacroix Taylor MI 206 46 255 39:25.8 12:43/M
17 Sandra Siegel Riverview MI 231 47 257 39:33.0 12:45/M
18 Lisa Serra Dearborn MI 139 45 283 46:20.4 14:57/M

Male 45 to 49
Total
Place Name City Bib No Age Overall Time Pace
1 David Wilson Grosse Ile MI 197 45 10 19:10.2 6:11/M
2 Hassan Irani Dearborn Height MI 269 45 16 19:49.1 6:24/M
3 Scott Siegel Riverview MI 230 48 52 23:02.9 7:26/M
4 Paul Des Rosiers Brownstown MI 5 47 58 23:34.3 7:36/M
5 Mark Jones Troy MI 101 48 59 23:41.6 7:38/M
6 Jeff Push Riverview MI 72 45 78 24:56.9 8:03/M
7 Paul West Southgate MI 219 49 79 25:00.3 8:04/M
8 Tim Embry Wyandotte MI 208 45 87 25:26.8 8:12/M
9 Michael Walters Riverview MI 11 45 127 27:42.4 8:56/M
10 Mike Ringuette West Bloomfield MI 108 47 213 34:01.3 10:58/M
11 Robert Riding Odessa FL 133 45 223 34:50.6 11:14/M
12 Michael Ray Grass Lake MI 84 47 226 35:19.4 11:24/M
13 Phil Metz Wyandotte MI 128 47 252 39:11.4 12:38/M

Female 50 to 54
Total
Place Name City Bib No Age Overall Time Pace
1 Laura Maslar Grosse Ile MI 73 54 34 21:54.2 7:04/M
2 Linda Raithel Grosse Ile MI 85 53 56 23:25.1 7:33/M
3 Maureen Adams Canton MI 211 51 145 28:55.6 9:20/M
4 Kimberly Sheffield Woodhaven MI 156 54 146 28:59.5 9:21/M
5 Kathleen Paulbeck Trenton MI 280 50 154 29:20.5 9:28/M
6 Elvida Salinas Dearborn MI 287 53 170 30:57.8 9:59/M
7 Judy Puhl Dearborn Height MI 166 51 238 36:57.9 11:55/M
8 Patti Miller Grosse Ile MI 140 54 240 37:23.7 12:04/M
9 Beth Kelly Troy MI 296 51 265 42:38.7 13:45/M
10 Janet Dunlan Woodhaven MI 54 52 284 46:31.6 15:00/M
11 Julie Franchini Albuquerque NM 137 52 289 48:28.4 15:38/M
12 Joan Jacobs Wyandotte MI 271 54 298 58:47.8 18:58/M
13 Darlene Stein Trenton MI 169 50 300 1:02:35.4 20:11/M

Male 50 to 54
Total
Place Name City Bib No Age Overall Time Pace
1 Todd Kelly Troy MI 297 51 11 19:37.4 6:20/M
2 Mike Tamilia Grosse Ile MI 198 50 22 20:22.3 6:34/M
3 Robert Grimes Taylor MI 4 52 25 20:45.2 6:42/M
4 Paul Marek Grosse Ile MI 306 54 45 22:39.8 7:18/M
5 John Brettschneider Riverview MI 78 52 75 24:43.5 7:58/M
6 Mark Kowalewski Wyandotte MI 62 52 76 24:44.6 7:59/M
7 Robert Paulbeck Trenton MI 281 52 108 26:14.1 8:28/M
8 Richard Chappo Taylor MI 89 51 136 28:05.4 9:04/M
9 Shawn Rowley Canton MI 103 50 137 28:10.1 9:05/M
10 Michael Knowles Wyandotte MI 118 50 144 28:54.6 9:19/M
11 Michael Nagle Allen Park MI 246 51 156 29:24.2 9:29/M
12 Kevin MacFarland Mount Clemens MI 10 53 179 31:39.3 10:13/M
13 Perry Cosme Dearborn MI 260 53 192 32:13.0 10:24/M
14 Paul Lacroix Taylor MI 207 52 194 32:18.9 10:25/M
15 Don Wallace Riverview MI 240 52 199 32:41.1 10:33/M
16 Tim Kolling Dearborn Heights M 59 51 212 34:01.0 10:58/M
17 Frank Ferreri Westland MI 116 50 248 38:08.3 12:18/M
18 Terry Morehead Dearborn MI 109 51 270 43:35.4 14:04/M
19 Kevin Holsomback Southgate MI 239 50 274 44:22.1 14:19/M

Female 55 to 59
Total
Place Name City Bib No Age Overall Time Pace
1 Ronda Burroughs Brownstown MI 67 56 162 30:04.1 9:42/M
2 Mary Kovach Marion WI 49 56 190 32:11.4 10:23/M
3 Georgan Matthews Plymouth MI 179 59 277 45:14.2 14:35/M
4 Kathy Mink Brownstown MI 41 59 285 46:32.6 15:01/M
5 Cheryl Thoms Wyandotte MI 134 56 287 48:22.7 15:36/M

Male 55 to 59
Total
Place Name City Bib No Age Overall Time Pace
1 Mark Chiaverini Gibraltar MI 28 55 26 20:51.3 6:44/M
2 Mark Marcucilli Brownstown MI 57 55 43 22:28.1 7:15/M
3 Al Mozug Livonia MI 52 59 61 24:00.6 7:45/M
4 Chris O'Callaghan Southgate MI 97 56 82 25:09.3 8:07/M
5 Joe Evans Ypsilanti MI 292 58 95 25:46.6 8:19/M
6 Ray Pilon Belleville MI 236 59 98 25:57.7 8:22/M
7 James Walter Woodhaven MI 119 55 121 27:16.0 8:48/M
8 Donald Theodore Royal Oak MI 309 58 128 27:44.0 8:57/M
9 William Bork Allen Park MI 110 56 147 29:00.2 9:21/M
10 Harold Matthews Plymouth MI 129 59 215 34:05.9 11:00/M
11 Dan Boisture Grosse Ile MI 200 58 228 35:31.3 11:27/M

Female 60 to 64
Total
Place Name City Bib No Age Overall Time Pace
1 Debbie Howard Leamington ON CA 155 64 188 32:07.8 10:22/M
2 Lois MacFarland Mount Clemens MI 9 60 214 34:03.3 10:59/M
3 Carol Stephenson Grosse Ile MI 141 60 297 57:21.4 18:30/M

Male 60 to 64
Total
Place Name City Bib No Age Overall Time Pace
1 Steve Short Lincoln Park MI 315 60 99 26:00.9 8:23/M
2 Bill Taylor Lincoln Park MI 215 62 149 29:03.6 9:22/M
3 Tom Adams Canton MI 212 60 160 29:48.2 9:37/M
4 Michael McMahon Wyandotte MI 87 60 173 31:22.1 10:07/M
5 Richard Porte Dearborn MI 48 61 220 34:39.3 11:11/M
6 Jeffrey Stone Gibraltar MI 74 60 231 35:38.1 11:30/M
7 Alan Watson Grosse Ile MI 46 64 241 37:27.5 12:05/M
8 Sam Behringer Grosse Pointe Farm 254 63 282 46:02.3 14:51/M

Female 65 to 69
Total
Place Name City Bib No Age Overall Time Pace
1 Karen Hill Grosse Ile MI 146 66 206 33:16.0 10:44/M

Male 65 to 69
Total
Place Name City Bib No Age Overall Time Pace
1 Paul Deladurantaye Southgate MI 96 66 17 19:52.7 6:25/M
2 Tim Laporte Trenton MI 69 65 36 22:08.6 7:08/M
3 Joseph Consiglio Gilbralter MI 25 65 85 25:22.9 8:11/M
4 Ramon Delbusto Bloomfield Hills M 298 66 235 36:38.3 11:49/M
5 Daniel Rusecki Dearborn MI 40 65 286 47:57.4 15:28/M

Male 70 to 74
Total
Place Name City Bib No Age Overall Time Pace
1 John Wehrly Madison Heights MI 291 72 133 27:53.1 9:00/M
2 Tom Naylor Temperance MI 60 72 195 32:20.8 10:26/M

Male 75 to 79
Total
Place Name City Bib No Age Overall Time Pace
1 David Lee Grosse Ile MI 202 75 132 27:49.0 8:58/M
2 Harrison Hensley Pinckney MI 44 79 261 40:21.6 13:01/M


--------------------------------------------------------------------------------